ADDS METAR Data INFO
IDs: Format: Raw Decoded Include TAF

Data at: 1924 UTC 23 Apr 2018

KGEV 231920Z AUTO 12010G17KT 4SM RA BKN008 OVC012 08/07 A3023 RMK AO2 P0005 T00800072
KGEV 231900Z AUTO 11011G20KT 7SM RA SCT009 OVC014 08/07 A3024 RMK AO2 T00800070
KGEV 231840Z AUTO 11008KT 5SM RA SCT006 BKN009 OVC018 08/07 A3024 RMK AO2 P0007 T00770070
KGEV 231820Z AUTO 13007KT 090V170 5SM RA OVC008 08/07 A3024 RMK AO2 P0003 T00770070
KGEV 231800Z AUTO 12011G17KT 5SM RA OVC014 08/06 A3024 RMK AO2 P0001 T00760063
KGEV 231740Z AUTO 11010G15KT 10SM -RA BKN014 OVC018 08/06 A3024 RMK AO2 T00760061
KGEV 231720Z AUTO 12008G20KT 100V160 7SM DZ SCT009 BKN014 OVC029 08/06 A3024 RMK AO2 T00790060
KGEV 231700Z AUTO 13010G18KT 10SM -RA SCT007 BKN012 OVC021 08/07 A3025 RMK AO2 T00800066
KGEV 231640Z AUTO 12009G18KT 10SM RA BKN009 BKN012 OVC022 08/07 A3026 RMK AO2 T00810071
KGEV 231620Z AUTO 13010G17KT 5SM RA SCT008 BKN012 OVC048 08/06 A3026 RMK AO2 T00790064
KGEV 231600Z AUTO 13008G15KT 100V180 10SM -RA BKN008 BKN012 OVC020 08/07 A3026 RMK AO2 T00800066
KGEV 231540Z AUTO 13006G18KT 110V190 10SM OVC010 09/07 A3025 RMK AO2 T00890069
KGEV 231520Z AUTO 13007G15KT 10SM OVC008 09/07 A3026 RMK AO2 T00850071
KGEV 231500Z AUTO 13011G21KT 10SM -RA OVC008 08/07 A3026 RMK AO2 T00790070
KGEV 231440Z AUTO 12009G15KT 10SM OVC008 08/07 A3026 RMK AO2 T00770070
KGEV 231420Z AUTO 14005KT 10SM -RA BKN008 OVC014 07/07 A3027 RMK AO2 T00740065
KGEV 231400Z AUTO 13007KT 10SM RA BKN008 OVC012 07/06 A3027 RMK AO2 T00710063
KGEV 231340Z AUTO 13006KT 10SM RA OVC008 07/06 A3029 RMK AO2 T00730062
KGEV 231320Z AUTO 14007KT 10SM OVC008 08/07 A3028 RMK AO2 T00760065
KGEV 231300Z AUTO 14006KT 10SM BKN008 OVC012 08/07 A3026 RMK AO2 T00760066
KGEV 231240Z AUTO 13006KT 10SM SCT006 BKN010 OVC024 08/07 A3027 RMK AO2 T00750066
KGEV 231220Z AUTO 13006KT 10SM -RA OVC004 07/07 A3026 RMK AO2 T00710065
KGEV 231200Z AUTO 14009G14KT 10SM OVC004 07/07 A3027 RMK AO2 T00720067
KGEV 231140Z AUTO 14006KT 7SM -DZ OVC002 07/07 A3027 RMK AO2 T00730070
KGEV 231120Z AUTO 14009KT 100V160 7SM DZ OVC002 07/07 A3027 RMK AO2 T00730070
KGEV 231100Z AUTO 14010G14KT 110V200 7SM OVC002 08/07 A3026 RMK AO2 T00750071
KGEV 231040Z AUTO 14009G18KT 100V160 7SM OVC002 08/08 A3024 RMK AO2 T00770075
KGEV 231020Z AUTO 13011G17KT 100V160 5SM BR OVC002 08/08 A3023 RMK AO2 T00800076
KGEV 231000Z AUTO 14007KT 110V180 10SM OVC004 08/08 A3024 RMK AO2 T00800075
KGEV 230940Z AUTO 14005G18KT 7SM OVC002 08/08 A3024 RMK AO2 P0001 T00800077
KGEV 230920Z AUTO 14007G21KT 110V170 5SM BR OVC002 08/08 A3024 RMK AO2 P0001 T00800077
KGEV 230900Z AUTO 13009KT 4SM RA OVC004 08/08 A3024 RMK AO2 T00830080
KGEV 230840Z AUTO 13005KT 10SM -RA OVC004 09/08 A3024 RMK AO2 T00850080
KGEV 230820Z AUTO 14009KT 110V180 10SM OVC006 09/08 A3023 RMK AO2 T00880077
KGEV 230800Z AUTO 13004KT 10SM OVC006 09/08 A3023 RMK AO2 T00900077
KGEV 230720Z AUTO 15007KT 10SM OVC008 09/08 A3024 RMK AO2 T00900076
KGEV 230700Z AUTO 15006KT 10SM OVC008 09/08 A3024 RMK AO2 T00910075
KGEV 230640Z AUTO 13008KT 10SM OVC008 09/07 A3024 RMK AO2 T00910073
KGEV 230620Z AUTO 14005KT 10SM OVC010 09/07 A3025 RMK AO2 T00930072
KGEV 230600Z AUTO 14007G14KT 110V190 10SM OVC012 10/07 A3025 RMK AO2 T00950070
KGEV 230540Z AUTO 14006KT 10SM OVC016 10/06 A3026 RMK AO2 T00970064
KGEV 230520Z AUTO 14006KT 10SM BKN018 OVC027 10/06 A3026 RMK AO2 T01000055
KGEV 230500Z AUTO 13008KT 10SM OVC027 10/05 A3026 RMK AO2 T01010054
KGEV 230440Z AUTO 14005KT 10SM OVC027 10/06 A3027 RMK AO2 T01000055
KGEV 230420Z AUTO 13005KT 10SM OVC027 10/05 A3027 RMK AO2 T01000053
KGEV 230400Z AUTO 13005KT 10SM OVC027 10/05 A3026 RMK AO2 T01000051
KGEV 230340Z AUTO 14004KT 10SM OVC027 10/05 A3026 RMK AO2 T00980046
KGEV 230320Z AUTO 00000KT 10SM OVC031 10/04 A3027 RMK AO2 T00970042
KGEV 230300Z AUTO 14004KT 10SM OVC035 10/04 A3027 RMK AO2 T00970040
KGEV 230240Z AUTO 14003KT 10SM BKN039 BKN120 10/04 A3028 RMK AO2 T00950041
KGEV 230220Z AUTO 15003KT 10SM SCT039 BKN120 10/04 A3028 RMK AO2 T00950043
KGEV 230200Z AUTO 14003KT 10SM BKN120 10/05 A3027 RMK AO2 T00960048
KGEV 230140Z AUTO 00000KT 10SM SCT120 10/05 A3027 RMK AO2 T00980047
KGEV 230120Z AUTO 15003KT 10SM SCT120 10/05 A3028 RMK AO2 T01010052
KGEV 230100Z AUTO 00000KT 10SM SCT120 10/05 A3028 RMK AO2 T01010052
KGEV 230020Z AUTO 15003KT 10SM SCT120 10/05 A3027 RMK AO2 T01020051
KGEV 230000Z AUTO 14003KT 10SM SCT120 11/05 A3027 RMK AO2 T01050052
KGEV 222340Z AUTO 16004KT 10SM SCT031 11/06 A3027 RMK AO2 T01100056
KGEV 222320Z AUTO 16005KT 10SM BKN031 11/06 A3027 RMK AO2 T01120057
KGEV 222300Z AUTO 00000KT 10SM SCT024 BKN029 12/07 A3027 RMK AO2 T01160066
KGEV 222200Z AUTO 16004KT 10SM BKN022 BKN030 OVC036 12/07 A3028 RMK AO2 T01160066
KGEV 222140Z AUTO 17004KT 10SM SCT022 BKN027 OVC034 12/07 A3028 RMK AO2 T01150066
KGEV 222120Z AUTO 18004KT 10SM SCT024 OVC032 12/07 A3028 RMK AO2 T01160068
KGEV 222040Z AUTO 15004KT 10SM BKN021 OVC026 12/07 A3028 RMK AO2 T01150071
KGEV 222020Z AUTO 15003KT 10SM BKN020 OVC032 12/08 A3029 RMK AO2 T01190075
KGEV 222000Z AUTO 00000KT 10SM BKN018 OVC036 11/08 A3030 RMK AO2 T01140076
KGEV 221940Z AUTO 17004KT 10SM OVC016 12/08 A3030 RMK AO2 T01170077
KGEV 221920Z AUTO 17003KT 10SM OVC016 11/08 A3031 RMK AO2 T01120076
KGEV 221900Z AUTO 17005KT 10SM OVC016 11/08 A3031 RMK AO2 T01090075
KGEV 221840Z AUTO 15005KT 10SM OVC016 12/08 A3031 RMK AO2 T01180078
KGEV 221820Z AUTO 14005KT 10SM OVC020 12/08 A3031 RMK AO2 T01230075
KGEV 221800Z AUTO 14006KT 100V170 10SM BKN020 OVC026 13/08 A3031 RMK AO2 T01310077
KGEV 221740Z AUTO 13005KT 10SM BKN024 BKN060 14/08 A3031 RMK AO2 T01390079
KGEV 221720Z AUTO 17007KT 120V210 10SM BKN025 BKN060 14/07 A3032 RMK AO2 T01360070
KGEV 221700Z AUTO 15004KT 10SM BKN025 14/07 A3032 RMK AO2 T01360072
KGEV 221640Z AUTO 18006KT 140V220 10SM SCT025 14/07 A3032 RMK AO2 T01390070
KGEV 221620Z AUTO 14005KT 10SM SCT025 14/07 A3032 RMK AO2 T01430074
KGEV 221600Z AUTO 14004KT 10SM CLR 14/07 A3032 RMK AO2 T01350068
KGEV 221540Z AUTO 16006KT 10SM SCT027 13/07 A3033 RMK AO2 T01340066
KGEV 221520Z AUTO 16006KT 120V190 10SM SCT025 13/06 A3032 RMK AO2 T01300064
KGEV 221500Z AUTO 16003KT 10SM CLR 13/06 A3032 RMK AO2 T01290057
KGEV 221440Z AUTO 14004KT 10SM CLR 13/05 A3032 RMK AO2 T01250053
KGEV 221420Z AUTO 15005KT 10SM CLR 13/06 A3033 RMK AO2 T01260055
KGEV 221400Z AUTO 00000KT 10SM CLR 12/05 A3032 RMK AO2 T01200048
KGEV 221340Z AUTO 00000KT 10SM CLR 11/04 A3033 RMK AO2 T01070039
KGEV 221320Z AUTO 00000KT 10SM CLR 09/03 A3033 RMK AO2 T00890026
KGEV 221300Z AUTO 00000KT 10SM CLR 09/01 A3033 RMK AO2 T00880012
KGEV 221240Z AUTO 00000KT 10SM CLR 08/00 A3033 RMK AO2 T00750000
KGEV 221220Z AUTO 00000KT 10SM CLR 07/00 A3033 RMK AO2 T00700004
KGEV 221200Z AUTO 00000KT 10SM CLR 07/00 A3033 RMK AO2 T00650000
KGEV 221140Z AUTO 00000KT 10SM CLR 06/00 A3033 RMK AO2 T00591005
KGEV 221120Z AUTO 00000KT 10SM CLR 07/00 A3032 RMK AO2 T00651005
KGEV 221100Z AUTO 00000KT 10SM CLR 06/M01 A3032 RMK AO2 T00601006
KGEV 221040Z AUTO 00000KT 10SM CLR 06/M01 A3032 RMK AO2 T00621007
KGEV 221020Z AUTO 00000KT 10SM CLR 06/M01 A3031 RMK AO2 T00601008
KGEV 221000Z AUTO 00000KT 10SM CLR 07/M01 A3031 RMK AO2 T00721007
KGEV 220940Z AUTO 00000KT 10SM CLR 07/M01 A3031 RMK AO2 T00721006
KGEV 220920Z AUTO 00000KT 10SM CLR 08/M01 A3031 RMK AO2 T00751006
KGEV 220900Z AUTO 18003KT 10SM CLR 06/00 A3031 RMK AO2 T00601005
KGEV 220840Z AUTO 00000KT 10SM CLR 07/M01 A3031 RMK AO2 T00681006
KGEV 220820Z AUTO 00000KT 10SM CLR 06/M01 A3031 RMK AO2 T00641006
KGEV 220800Z AUTO 00000KT 10SM CLR 07/M01 A3031 RMK AO2 T00721006
KGEV 220740Z AUTO 00000KT 10SM CLR 08/M01 A3031 RMK AO2 T00761007